createdAt,value
2019-03-03T00:55:59.961Z,8.44
2019-03-03T00:58:53.135Z,8.38
2019-03-03T01:01:55.196Z,8.42
2019-03-03T01:04:50.713Z,8.44
2019-03-03T01:07:46.366Z,8.42
2019-03-03T01:10:51.598Z,8.51
2019-03-03T01:13:42.009Z,8.47
2019-03-03T01:16:36.879Z,8.55
2019-03-03T01:19:31.863Z,8.55
2019-03-03T01:22:27.923Z,8.47
2019-03-03T01:25:00.898Z,8.54
2019-03-03T01:27:34.695Z,8.54
2019-03-03T01:30:09.504Z,8.50
2019-03-03T01:32:43.548Z,8.40
2019-03-03T01:35:16.433Z,8.50
2019-03-03T01:37:49.030Z,8.56
2019-03-03T01:40:22.518Z,8.61
2019-03-03T01:42:56.005Z,8.62
2019-03-03T01:45:28.979Z,8.59
2019-03-03T01:48:02.252Z,8.65
2019-03-03T01:50:34.847Z,8.61
2019-03-03T01:53:08.216Z,8.59
2019-03-03T01:55:40.785Z,8.64
2019-03-03T01:58:14.525Z,8.68
2019-03-03T02:00:46.714Z,8.71
2019-03-03T02:03:20.097Z,8.74
2019-03-03T02:05:53.160Z,8.76
2019-03-03T02:08:26.313Z,8.77
2019-03-03T02:10:59.283Z,8.74
2019-03-03T02:13:32.880Z,8.84
2019-03-03T02:16:06.594Z,8.76
2019-03-03T02:18:40.077Z,8.76
2019-03-03T02:21:13.072Z,8.78
2019-03-03T02:23:46.468Z,8.76
2019-03-03T02:26:19.793Z,8.70
2019-03-03T02:28:52.893Z,8.70
2019-03-03T02:31:26.289Z,8.86
2019-03-03T02:33:59.861Z,8.78
2019-03-03T02:36:33.235Z,8.82
2019-03-03T02:39:13.583Z,8.85
2019-03-03T02:41:46.766Z,8.86
2019-03-03T02:44:20.480Z,8.84
2019-03-03T02:46:54.253Z,8.80
2019-03-03T02:49:27.533Z,8.82
2019-03-03T02:52:01.575Z,8.88
2019-03-03T02:54:34.599Z,8.81
2019-03-03T02:57:07.925Z,8.84
2019-03-03T02:59:41.650Z,8.78
2019-03-03T03:02:34.776Z,8.85
2019-03-03T03:05:07.441Z,8.83
2019-03-03T03:07:46.644Z,8.78
2019-03-03T03:10:28.687Z,8.88
2019-03-03T03:13:27.281Z,8.90
2019-03-03T03:16:14.700Z,8.88
2019-03-03T03:19:07.562Z,8.81
2019-03-03T03:22:15.464Z,8.79
2019-03-03T03:25:08.326Z,8.75
2019-03-03T03:27:56.890Z,8.68
2019-03-03T03:30:49.562Z,8.67
2019-03-03T03:33:32.937Z,8.71
2019-03-03T03:36:36.857Z,8.72
2019-03-03T03:39:29.575Z,8.75
2019-03-03T03:42:11.923Z,8.76
2019-03-03T03:45:03.740Z,8.69
2019-03-03T03:48:08.281Z,8.65
2019-03-03T03:50:50.687Z,8.72
2019-03-03T03:53:29.943Z,8.61
2019-03-03T03:56:16.027Z,8.63
2019-03-03T03:59:12.945Z,8.58
2019-03-03T04:02:05.307Z,8.65
2019-03-03T04:04:48.809Z,8.78
2019-03-03T04:07:38.542Z,8.70
2019-03-03T04:10:18.170Z,8.69
2019-03-03T04:13:11.036Z,8.63
2019-03-03T04:16:01.832Z,8.61
2019-03-03T04:18:48.368Z,8.65
2019-03-03T04:21:32.193Z,8.55
2019-03-03T04:24:15.688Z,8.62
2019-03-03T04:27:03.077Z,8.66
2019-03-03T04:30:01.321Z,8.68
2019-03-03T04:33:04.185Z,8.76
2019-03-03T04:35:51.925Z,8.76
2019-03-03T04:38:39.146Z,8.73
2019-03-03T04:41:31.911Z,8.75
2019-03-03T04:44:13.075Z,8.74
2019-03-03T04:47:03.787Z,8.80
2019-03-03T04:49:56.060Z,8.76
2019-03-03T04:52:34.527Z,8.75
2019-03-03T04:55:30.264Z,8.75
2019-03-03T04:58:26.376Z,8.74
2019-03-03T05:01:17.273Z,8.77
2019-03-03T05:04:16.479Z,8.76
2019-03-03T05:07:13.334Z,8.74
2019-03-03T05:10:12.058Z,8.80
2019-03-03T05:13:02.825Z,8.82
2019-03-03T05:16:02.345Z,8.81
2019-03-03T05:18:48.415Z,8.75
2019-03-03T05:21:21.926Z,8.77
2019-03-03T05:23:55.032Z,8.79
2019-03-03T05:26:28.415Z,8.79
2019-03-03T05:29:02.437Z,8.72
2019-03-03T05:31:35.734Z,8.55
2019-03-03T05:34:09.143Z,8.53
2019-03-03T05:36:42.229Z,8.47
2019-03-03T05:39:15.526Z,8.47
2019-03-03T05:41:48.908Z,8.31
2019-03-03T05:44:22.760Z,8.39
2019-03-03T05:46:56.598Z,8.42
2019-03-03T05:49:30.292Z,8.46
2019-03-03T05:52:03.587Z,8.38
2019-03-03T05:54:37.028Z,8.35
2019-03-03T05:57:10.995Z,8.40
2019-03-03T05:59:44.359Z,8.30
2019-03-03T06:02:17.303Z,8.28
2019-03-03T06:04:50.298Z,8.31
2019-03-03T06:07:23.359Z,8.41
2019-03-03T06:09:56.617Z,8.47
2019-03-03T06:12:30.004Z,8.53
2019-03-03T06:15:03.330Z,8.56
2019-03-03T06:17:37.110Z,8.53
2019-03-03T06:20:10.814Z,8.44
2019-03-03T06:22:44.136Z,8.44
2019-03-03T06:25:17.101Z,8.45
2019-03-03T06:27:50.171Z,8.50
2019-03-03T06:30:24.142Z,8.48
2019-03-03T06:32:57.803Z,8.47
2019-03-03T06:35:30.802Z,8.45
2019-03-03T06:38:03.856Z,8.46
2019-03-03T06:40:37.148Z,8.42
2019-03-03T06:43:10.626Z,8.47
2019-03-03T06:45:44.664Z,8.47
2019-03-03T06:48:18.368Z,8.34
2019-03-03T06:50:52.960Z,8.27
2019-03-03T06:53:26.110Z,8.19
2019-03-03T06:55:59.148Z,8.17
2019-03-03T06:58:32.874Z,8.11
2019-03-03T07:01:05.464Z,8.08
2019-03-03T07:03:38.436Z,8.06
2019-03-03T07:06:11.951Z,8.18
2019-03-03T07:08:44.629Z,8.05
2019-03-03T07:11:18.014Z,8.09
2019-03-03T07:13:50.999Z,8.07
2019-03-03T07:16:26.283Z,8.00
2019-03-03T07:18:58.712Z,7.98
2019-03-03T07:21:31.864Z,8.00
2019-03-03T07:24:05.312Z,8.02
2019-03-03T07:26:38.547Z,7.99
2019-03-03T07:29:12.022Z,8.05
2019-03-03T07:31:45.054Z,8.04
2019-03-03T07:34:18.544Z,8.06
2019-03-03T07:36:51.097Z,8.02
2019-03-03T07:39:24.466Z,8.06
2019-03-03T07:41:57.892Z,8.10
2019-03-03T07:44:31.258Z,7.97
2019-03-03T07:47:04.668Z,8.13
2019-03-03T07:49:38.191Z,8.03
2019-03-03T07:52:11.238Z,7.94
2019-03-03T07:54:44.759Z,7.94
2019-03-03T07:57:17.792Z,7.96
2019-03-03T07:59:51.560Z,7.97
2019-03-03T08:02:24.930Z,7.98
2019-03-03T08:04:57.520Z,8.06
2019-03-03T08:07:31.114Z,8.07
2019-03-03T08:10:04.125Z,8.07
2019-03-03T08:12:37.990Z,8.08
2019-03-03T08:15:11.211Z,8.07
2019-03-03T08:17:43.998Z,8.05
2019-03-03T08:20:17.216Z,8.01
2019-03-03T08:22:50.312Z,8.02
2019-03-03T08:25:24.144Z,8.07
2019-03-03T08:27:57.787Z,8.04
2019-03-03T08:30:31.162Z,8.05
2019-03-03T08:33:04.617Z,8.04
2019-03-03T08:35:38.259Z,8.00
2019-03-03T08:38:11.825Z,8.03
2019-03-03T08:40:45.274Z,8.06
2019-03-03T08:43:40.623Z,8.05
2019-03-03T08:46:31.899Z,8.04
2019-03-03T08:49:29.723Z,8.04
2019-03-03T08:52:25.100Z,8.07
2019-03-03T08:55:19.902Z,8.12
2019-03-03T08:58:12.963Z,8.09
2019-03-03T09:01:05.183Z,8.14
2019-03-03T09:03:59.082Z,8.13
2019-03-03T09:06:51.447Z,8.13
2019-03-03T09:09:49.191Z,8.15
2019-03-03T09:12:30.091Z,8.15
2019-03-03T09:15:31.748Z,8.16
2019-03-03T09:18:30.911Z,8.15
2019-03-03T09:21:28.711Z,8.15
2019-03-03T09:24:19.213Z,8.22
2019-03-03T09:27:18.378Z,8.19
2019-03-03T09:30:11.439Z,8.18
2019-03-03T09:33:16.404Z,8.15
2019-03-03T09:36:11.885Z,8.16
2019-03-03T09:39:16.323Z,8.15
2019-03-03T09:42:12.174Z,8.14
2019-03-03T09:45:10.930Z,8.20
2019-03-03T09:48:09.752Z,8.21
2019-03-03T09:50:58.836Z,8.17
2019-03-03T09:53:54.935Z,8.21
2019-03-03T09:57:05.489Z,8.21
2019-03-03T09:59:50.068Z,8.21
2019-03-03T10:02:48.459Z,8.21
2019-03-03T10:05:39.738Z,8.17
2019-03-03T10:08:38.764Z,8.20
2019-03-03T10:11:30.881Z,8.23
2019-03-03T10:14:23.919Z,8.26
2019-03-03T10:17:15.237Z,8.29
2019-03-03T10:19:54.008Z,8.29
2019-03-03T10:22:46.000Z,8.30
2019-03-03T10:25:50.743Z,8.34
2019-03-03T10:28:43.810Z,8.35
2019-03-03T10:31:39.114Z,8.37
2019-03-03T10:34:18.335Z,8.41
2019-03-03T10:37:14.650Z,8.40
2019-03-03T10:40:05.395Z,8.42
2019-03-03T10:42:47.174Z,8.42
2019-03-03T10:45:37.015Z,8.46
2019-03-03T10:48:24.802Z,8.48
2019-03-03T10:51:35.363Z,8.51
2019-03-03T10:54:37.757Z,8.53
2019-03-03T10:57:23.175Z,8.55
2019-03-03T11:00:15.466Z,8.55
2019-03-03T11:03:02.888Z,8.54
2019-03-03T11:05:54.555Z,8.57
2019-03-03T11:08:39.197Z,8.59
2019-03-03T11:11:32.461Z,8.61
2019-03-03T11:14:19.393Z,8.61
2019-03-03T11:16:59.112Z,8.60
2019-03-03T11:20:03.795Z,8.60
2019-03-03T11:23:05.808Z,8.64
2019-03-03T11:25:57.398Z,8.65
2019-03-03T11:28:49.084Z,8.67
2019-03-03T11:31:45.187Z,8.72
2019-03-03T11:34:36.087Z,8.68
2019-03-03T11:37:41.465Z,8.73
2019-03-03T11:40:32.772Z,8.72
2019-03-03T11:43:24.393Z,8.74
2019-03-03T11:46:27.465Z,8.81
2019-03-03T11:49:35.407Z,8.77
2019-03-03T11:52:19.728Z,8.76
2019-03-03T11:55:02.651Z,8.75
2019-03-03T11:57:51.529Z,8.80
2019-03-03T12:00:39.927Z,8.81
2019-03-03T12:03:32.338Z,8.81
2019-03-03T12:06:11.427Z,8.88
2019-03-03T12:09:16.478Z,8.83
2019-03-03T12:12:07.786Z,8.84
2019-03-03T12:15:15.387Z,8.84
2019-03-03T12:17:54.423Z,8.84
2019-03-03T12:20:50.255Z,8.85
2019-03-03T12:23:45.457Z,8.84
2019-03-03T12:26:41.170Z,8.85
2019-03-03T12:29:32.304Z,8.86
2019-03-03T12:32:27.686Z,8.88
2019-03-03T12:35:19.905Z,8.94
2019-03-03T12:38:07.877Z,8.92
2019-03-03T12:41:09.952Z,8.98
2019-03-03T12:43:55.733Z,9.01
2019-03-03T12:46:50.374Z,9.04
2019-03-03T12:49:50.466Z,9.03
2019-03-03T12:52:42.780Z,9.10
2019-03-03T12:55:38.919Z,9.18
2019-03-03T12:58:26.966Z,9.22
2019-03-03T13:01:15.184Z,9.22
2019-03-03T13:04:02.018Z,9.25
2019-03-03T13:06:51.993Z,9.23
2019-03-03T13:09:34.532Z,9.27
2019-03-03T13:12:27.273Z,9.30
2019-03-03T13:15:19.599Z,9.30
2019-03-03T13:18:12.179Z,9.29
2019-03-03T13:21:14.417Z,9.23
2019-03-03T13:24:19.570Z,9.23
2019-03-03T13:27:09.576Z,9.28
2019-03-03T13:29:51.672Z,9.30
2019-03-03T13:32:32.843Z,9.31
2019-03-03T13:35:43.618Z,9.28
2019-03-03T13:38:36.186Z,9.27
2019-03-03T13:41:17.439Z,9.33
2019-03-03T13:43:50.533Z,9.36
2019-03-03T13:46:24.080Z,9.34
2019-03-03T13:48:57.843Z,9.35
2019-03-03T13:51:30.674Z,9.36
2019-03-03T13:54:03.496Z,9.37
2019-03-03T13:56:36.798Z,9.41
2019-03-03T13:59:10.023Z,9.44
2019-03-03T14:01:43.550Z,9.43
2019-03-03T14:04:16.798Z,9.41
2019-03-03T14:06:49.919Z,9.42
2019-03-03T14:09:23.807Z,9.42
2019-03-03T14:11:57.596Z,9.41
2019-03-03T14:14:30.945Z,9.42
2019-03-03T14:17:04.562Z,9.44
2019-03-03T14:19:38.254Z,9.44
2019-03-03T14:22:11.678Z,9.42
2019-03-03T14:24:45.174Z,9.43
2019-03-03T14:27:19.053Z,9.46
2019-03-03T14:29:52.395Z,9.44
2019-03-03T14:32:25.987Z,9.49
2019-03-03T14:34:59.196Z,9.45
2019-03-03T14:37:32.712Z,9.45
2019-03-03T14:40:05.884Z,9.49
2019-03-03T14:42:38.978Z,9.44
2019-03-03T14:45:13.681Z,9.44
2019-03-03T14:47:47.184Z,9.44
2019-03-03T14:50:19.643Z,9.41
2019-03-03T14:52:53.662Z,9.41
2019-03-03T14:55:26.896Z,9.39
2019-03-03T14:58:00.427Z,9.39
2019-03-03T15:00:33.888Z,9.39
2019-03-03T15:03:07.423Z,9.36
2019-03-03T15:05:40.167Z,9.38
2019-03-03T15:08:13.705Z,9.36
2019-03-03T15:10:46.876Z,9.37
2019-03-03T15:13:20.446Z,9.37
2019-03-03T15:15:53.452Z,9.38
2019-03-03T15:18:26.971Z,9.38
2019-03-03T15:20:59.966Z,9.33
2019-03-03T15:23:34.056Z,9.33
2019-03-03T15:26:09.083Z,9.30
2019-03-03T15:28:42.691Z,9.28
2019-03-03T15:31:16.170Z,9.27
2019-03-03T15:33:49.986Z,9.26
2019-03-03T15:36:23.163Z,9.31
2019-03-03T15:38:56.869Z,9.30
2019-03-03T15:41:30.405Z,9.26
2019-03-03T15:44:03.994Z,9.26
2019-03-03T15:46:36.686Z,9.27
2019-03-03T15:49:09.765Z,9.26
2019-03-03T15:51:43.304Z,9.32
2019-03-03T15:54:16.471Z,9.26
2019-03-03T15:56:49.557Z,9.27
2019-03-03T15:59:22.925Z,9.27
2019-03-03T16:01:56.431Z,9.31
2019-03-03T16:04:29.660Z,9.43
2019-03-03T16:07:03.261Z,9.39
2019-03-03T16:09:36.632Z,9.32
2019-03-03T16:12:10.281Z,9.36
2019-03-03T16:14:43.712Z,9.32
2019-03-03T16:17:17.528Z,9.32
2019-03-03T16:19:50.795Z,9.36
2019-03-03T16:22:24.704Z,9.36
2019-03-03T16:24:57.371Z,9.36
2019-03-03T16:27:29.991Z,9.42
2019-03-03T16:30:02.899Z,9.45
2019-03-03T16:32:37.518Z,9.51
2019-03-03T16:35:11.361Z,9.54
2019-03-03T16:37:44.922Z,9.53
2019-03-03T16:40:22.074Z,9.45
2019-03-03T16:42:55.107Z,9.47
2019-03-03T16:45:28.576Z,9.45
2019-03-03T16:48:01.500Z,9.47
2019-03-03T16:50:35.425Z,9.45
2019-03-03T16:53:08.873Z,9.43
2019-03-03T16:55:41.933Z,9.46
2019-03-03T16:58:15.468Z,9.50
2019-03-03T17:00:48.349Z,9.56
2019-03-03T17:03:21.868Z,9.56
2019-03-03T17:05:55.249Z,9.55
2019-03-03T17:08:28.019Z,9.52
2019-03-03T17:11:01.520Z,9.54
2019-03-03T17:13:35.083Z,9.57
2019-03-03T17:16:08.750Z,9.53
2019-03-03T17:18:41.610Z,9.51
2019-03-03T17:21:15.196Z,9.49
2019-03-03T17:23:48.616Z,9.50
2019-03-03T17:26:21.804Z,9.55
2019-03-03T17:28:54.946Z,9.47
2019-03-03T17:31:28.762Z,9.49
2019-03-03T17:34:01.834Z,9.55
2019-03-03T17:36:35.038Z,9.49
2019-03-03T17:39:08.697Z,9.54
2019-03-03T17:41:42.109Z,9.59
2019-03-03T17:44:15.552Z,9.61
2019-03-03T17:46:48.396Z,9.62
2019-03-03T17:49:21.668Z,9.68
2019-03-03T17:51:55.494Z,9.73
2019-03-03T17:54:28.410Z,9.75
2019-03-03T17:57:02.866Z,9.66
2019-03-03T17:59:36.612Z,9.63
2019-03-03T18:02:10.530Z,9.66
2019-03-03T18:04:42.814Z,9.73
2019-03-03T18:07:15.928Z,9.71
2019-03-03T18:09:49.760Z,9.74
2019-03-03T18:12:23.282Z,9.71
2019-03-03T18:14:57.249Z,9.61
2019-03-03T18:17:30.996Z,9.73
2019-03-03T18:20:05.155Z,9.78
2019-03-03T18:22:39.450Z,9.75
2019-03-03T18:25:13.778Z,9.76
2019-03-03T18:27:47.334Z,9.73
2019-03-03T18:30:21.507Z,9.79
2019-03-03T18:32:54.631Z,9.74
2019-03-03T18:35:28.176Z,9.75
2019-03-03T18:38:01.557Z,9.81
2019-03-03T18:40:35.881Z,9.84
2019-03-03T18:43:09.845Z,9.81
2019-03-03T18:45:42.876Z,9.99
2019-03-03T18:48:15.510Z,9.95
2019-03-03T18:50:49.373Z,9.94
2019-03-03T18:53:23.432Z,9.99
2019-03-03T18:55:56.912Z,9.89
2019-03-03T18:58:30.833Z,9.90
2019-03-03T19:01:05.114Z,10.01
2019-03-03T19:03:38.393Z,9.96
2019-03-03T19:06:11.993Z,10.02
2019-03-03T19:08:45.761Z,9.99
2019-03-03T19:11:19.382Z,9.91
2019-03-03T19:13:53.005Z,9.87
2019-03-03T19:16:26.478Z,9.91
2019-03-03T19:18:59.329Z,9.87
2019-03-03T19:21:31.911Z,9.92
2019-03-03T19:24:05.215Z,9.93
2019-03-03T19:26:38.640Z,10.05
2019-03-03T19:29:12.346Z,10.04
2019-03-03T19:31:45.336Z,9.96
2019-03-03T19:34:18.831Z,9.99
2019-03-03T19:36:52.334Z,9.91
2019-03-03T19:39:25.866Z,9.97
2019-03-03T19:41:59.245Z,10.04
2019-03-03T19:44:33.020Z,10.03
2019-03-03T19:47:06.357Z,10.12
2019-03-03T19:49:39.946Z,9.99
2019-03-03T19:52:12.615Z,9.96
2019-03-03T19:54:46.141Z,10.00
2019-03-03T19:57:19.614Z,10.00
2019-03-03T19:59:53.392Z,9.96
2019-03-03T20:02:26.827Z,10.01
2019-03-03T20:05:00.357Z,9.96
2019-03-03T20:07:34.210Z,10.02
2019-03-03T20:10:08.029Z,9.97
2019-03-03T20:12:41.914Z,10.05
2019-03-03T20:15:15.494Z,10.13
2019-03-03T20:17:48.959Z,10.04
2019-03-03T20:20:22.633Z,10.02
2019-03-03T20:22:56.516Z,10.06
2019-03-03T20:25:30.370Z,9.97
2019-03-03T20:28:03.850Z,10.03
2019-03-03T20:30:38.249Z,9.91
2019-03-03T20:33:11.590Z,9.97
2019-03-03T20:35:45.601Z,9.99
2019-03-03T20:38:19.994Z,10.02
2019-03-03T20:40:53.629Z,10.04
2019-03-03T20:43:27.083Z,10.20
2019-03-03T20:46:00.691Z,10.15
2019-03-03T20:48:33.920Z,10.16
2019-03-03T20:51:07.039Z,10.26
2019-03-03T20:53:40.074Z,10.18
2019-03-03T20:56:13.817Z,10.10
2019-03-03T20:58:48.089Z,10.22
2019-03-03T21:01:22.480Z,10.27
2019-03-03T21:03:56.652Z,10.29
2019-03-03T21:06:29.988Z,10.36
2019-03-03T21:09:04.338Z,10.31
2019-03-03T21:11:40.346Z,10.34
2019-03-03T21:14:14.538Z,10.22
2019-03-03T21:16:48.030Z,10.16
2019-03-03T21:19:21.649Z,10.18
2019-03-03T21:21:55.203Z,10.26
2019-03-03T21:24:28.350Z,10.33
2019-03-03T21:27:01.395Z,10.35
2019-03-03T21:29:34.947Z,10.33
2019-03-03T21:32:08.641Z,10.45
2019-03-03T21:34:42.347Z,10.39
2019-03-03T21:37:16.026Z,10.48
2019-03-03T21:39:49.536Z,10.53
2019-03-03T21:42:23.493Z,10.45
2019-03-03T21:44:57.134Z,10.51
2019-03-03T21:47:30.799Z,10.59
2019-03-03T21:50:03.747Z,10.59
2019-03-03T21:52:38.157Z,10.58
2019-03-03T21:55:11.453Z,10.59
2019-03-03T21:57:44.791Z,10.60
2019-03-03T22:00:28.414Z,10.71
2019-03-03T22:03:02.290Z,10.75
2019-03-03T22:05:36.102Z,10.68
2019-03-03T22:08:09.515Z,10.70
2019-03-03T22:10:42.884Z,10.71
2019-03-03T22:13:16.311Z,10.60
2019-03-03T22:15:49.476Z,10.65
2019-03-03T22:18:22.575Z,10.65
2019-03-03T22:20:55.346Z,10.59
2019-03-03T22:23:28.326Z,10.52
2019-03-03T22:26:02.293Z,10.57
2019-03-03T22:28:36.410Z,10.65
2019-03-03T22:31:09.656Z,10.37
2019-03-03T22:33:43.061Z,10.47
2019-03-03T22:36:16.508Z,10.44
2019-03-03T22:38:49.416Z,10.42
2019-03-03T22:41:22.822Z,10.44
2019-03-03T22:43:56.471Z,10.58
2019-03-03T22:46:29.518Z,10.56
2019-03-03T22:49:02.999Z,10.53
2019-03-03T22:51:36.398Z,10.60
2019-03-03T22:54:09.603Z,10.49
2019-03-03T22:56:43.523Z,10.55
2019-03-03T22:59:16.638Z,10.36
2019-03-03T23:01:50.297Z,10.42
2019-03-03T23:05:01.294Z,10.33
2019-03-03T23:07:59.965Z,10.29
2019-03-03T23:11:35.895Z,10.41
2019-03-03T23:14:31.783Z,10.30
2019-03-03T23:17:52.078Z,10.30
2019-03-03T23:20:52.415Z,10.23
2019-03-03T23:24:06.805Z,10.26
2019-03-03T23:26:41.070Z,10.25
2019-03-03T23:29:14.047Z,10.28
2019-03-03T23:31:47.461Z,10.31
2019-03-03T23:34:20.957Z,10.25
2019-03-03T23:36:54.056Z,10.18
2019-03-03T23:39:27.423Z,10.28
2019-03-03T23:42:01.187Z,10.32
2019-03-03T23:44:35.095Z,10.17
2019-03-03T23:47:08.234Z,10.31
2019-03-03T23:49:41.672Z,10.27
2019-03-03T23:52:14.210Z,10.31
2019-03-03T23:54:47.747Z,10.32
2019-03-03T23:57:20.443Z,10.23
2019-03-03T23:59:56.119Z,10.40
